createdAt,value
2022-12-24T00:03:00.822Z,95027.00
2022-12-24T00:07:03.647Z,95047.00
2022-12-24T00:11:08.080Z,95064.00
2022-12-24T00:15:11.836Z,95061.00
2022-12-24T00:19:14.612Z,95073.00
2022-12-24T00:23:18.460Z,95079.00
2022-12-24T00:27:22.513Z,95064.00
2022-12-24T00:31:26.501Z,95057.00
2022-12-24T00:35:29.565Z,95051.00
2022-12-24T00:39:32.524Z,95074.00
2022-12-24T00:43:36.628Z,95096.00
2022-12-24T00:47:39.559Z,95099.00
2022-12-24T00:51:42.364Z,95103.00
2022-12-24T00:55:45.230Z,95095.00
2022-12-24T00:59:49.387Z,95117.00
2022-12-24T01:04:12.789Z,95109.00
2022-12-24T01:08:15.709Z,95133.00
2022-12-24T01:12:18.512Z,95131.00
2022-12-24T01:16:22.830Z,95143.00
2022-12-24T01:20:27.016Z,95128.00
2022-12-24T01:24:29.750Z,95131.00
2022-12-24T01:28:33.555Z,95158.00
2022-12-24T01:32:37.690Z,95151.00
2022-12-24T01:36:40.406Z,95147.00
2022-12-24T01:41:01.289Z,95173.00
2022-12-24T01:45:39.507Z,95172.00
2022-12-24T01:49:47.560Z,95176.00
2022-12-24T01:53:55.571Z,95198.00
2022-12-24T01:58:01.560Z,95193.00
2022-12-24T02:02:05.974Z,95205.00
2022-12-24T02:06:12.284Z,95207.00
2022-12-24T02:10:15.715Z,95209.00
2022-12-24T02:14:19.273Z,95211.00
2022-12-24T02:18:30.550Z,95191.00
2022-12-24T02:22:47.927Z,95198.00
2022-12-24T02:27:10.679Z,95192.00
2022-12-24T02:31:20.726Z,95202.00
2022-12-24T02:35:31.671Z,95207.00
2022-12-24T02:39:40.147Z,95231.00
2022-12-24T02:43:46.832Z,95229.00
2022-12-24T02:47:52.508Z,95226.00
2022-12-24T02:51:55.252Z,95236.00
2022-12-24T02:56:29.186Z,95233.00
2022-12-24T03:00:41.218Z,95235.00
2022-12-24T03:04:50.640Z,95234.00
2022-12-24T03:09:00.240Z,95253.00
2022-12-24T03:13:07.230Z,95244.00
2022-12-24T03:17:11.210Z,95260.00
2022-12-24T03:21:19.175Z,95249.00
2022-12-24T03:25:26.287Z,95244.00
2022-12-24T03:29:29.180Z,95250.00
2022-12-24T03:33:31.983Z,95256.00
2022-12-24T03:37:36.128Z,95268.00
2022-12-24T03:41:39.400Z,95276.00
2022-12-24T03:45:42.361Z,95263.00
2022-12-24T03:49:45.178Z,95255.00
2022-12-24T03:53:49.603Z,95251.00
2022-12-24T03:57:52.430Z,95263.00
2022-12-24T04:01:55.456Z,95291.00
2022-12-24T04:06:03.877Z,95288.00
2022-12-24T04:10:09.840Z,95301.00
2022-12-24T04:14:12.613Z,95308.00
2022-12-24T04:18:15.444Z,95325.00
2022-12-24T04:22:18.254Z,95307.00
2022-12-24T04:26:22.429Z,95308.00
2022-12-24T04:30:25.222Z,95326.00
2022-12-24T04:34:28.069Z,95321.00
2022-12-24T04:38:31.598Z,95321.00
2022-12-24T04:42:35.754Z,95322.00
2022-12-24T04:46:38.561Z,95326.00
2022-12-24T04:50:41.316Z,95335.00
2022-12-24T04:54:44.083Z,95347.00
2022-12-24T04:58:48.787Z,95346.00
2022-12-24T05:02:51.722Z,95349.00
2022-12-24T05:06:54.547Z,95351.00
2022-12-24T05:10:57.966Z,95364.00
2022-12-24T05:15:02.296Z,95359.00
2022-12-24T05:19:05.195Z,95350.00
2022-12-24T05:23:25.513Z,95345.00
2022-12-24T05:27:28.496Z,95363.00
2022-12-24T05:31:34.431Z,95357.00
2022-12-24T05:35:37.153Z,95356.00
2022-12-24T05:39:39.939Z,95364.00
2022-12-24T05:43:42.827Z,95378.00
2022-12-24T05:47:46.930Z,95378.00
2022-12-24T05:51:49.754Z,95381.00
2022-12-24T05:55:52.498Z,95398.00
2022-12-24T05:59:55.230Z,95376.00
2022-12-24T06:03:59.435Z,95397.00
2022-12-24T06:08:02.234Z,95399.00
2022-12-24T06:12:05.371Z,95406.00
2022-12-24T06:16:12.905Z,95417.00
2022-12-24T06:20:17.139Z,95420.00
2022-12-24T06:24:19.957Z,95411.00
2022-12-24T06:28:22.638Z,95402.00
2022-12-24T06:32:25.323Z,95408.00
2022-12-24T06:36:29.338Z,95420.00
2022-12-24T06:40:32.078Z,95420.00
2022-12-24T06:44:34.706Z,95422.00
2022-12-24T06:48:37.420Z,95418.00
2022-12-24T06:52:41.537Z,95422.00
2022-12-24T06:56:44.296Z,95438.00
2022-12-24T07:00:48.767Z,95435.00
2022-12-24T07:04:51.760Z,95433.00
2022-12-24T07:08:55.975Z,95431.00
2022-12-24T07:12:58.721Z,95429.00
2022-12-24T07:17:01.569Z,95444.00
2022-12-24T07:21:05.637Z,95447.00
2022-12-24T07:25:11.051Z,95448.00
2022-12-24T07:29:13.817Z,95464.00
2022-12-24T07:33:16.626Z,95469.00
2022-12-24T07:37:19.362Z,95465.00
2022-12-24T07:41:23.722Z,95485.00
2022-12-24T07:45:26.452Z,95503.00
2022-12-24T07:49:29.365Z,95509.00
2022-12-24T07:53:32.775Z,95500.00
2022-12-24T07:57:36.811Z,95503.00
2022-12-24T08:01:39.699Z,95522.00
2022-12-24T08:05:42.539Z,95527.00
2022-12-24T08:09:46.154Z,95523.00
2022-12-24T08:13:50.345Z,95535.00
2022-12-24T08:17:53.087Z,95539.00
2022-12-24T08:21:56.871Z,95550.00
2022-12-24T08:25:59.613Z,95558.00
2022-12-24T08:30:03.840Z,95574.00
2022-12-24T08:34:09.008Z,95555.00
2022-12-24T08:38:11.780Z,95557.00
2022-12-24T08:42:14.691Z,95551.00
2022-12-24T08:46:18.943Z,95574.00
2022-12-24T08:50:21.740Z,95576.00
2022-12-24T08:54:30.235Z,95582.00
2022-12-24T08:58:33.265Z,95589.00
2022-12-24T09:02:37.513Z,95605.00
2022-12-24T09:06:40.386Z,95607.00
2022-12-24T09:10:43.317Z,95609.00
2022-12-24T09:14:46.109Z,95605.00
2022-12-24T09:18:50.248Z,95624.00
2022-12-24T09:22:53.110Z,95639.00
2022-12-24T09:26:58.116Z,95644.00
2022-12-24T09:31:02.786Z,95637.00
2022-12-24T09:35:07.843Z,95641.00
2022-12-24T09:39:10.598Z,95651.00
2022-12-24T09:43:16.939Z,95652.00
2022-12-24T09:47:23.896Z,95656.00
2022-12-24T09:51:33.134Z,95640.00
2022-12-24T09:55:43.891Z,95649.00
2022-12-24T09:59:48.137Z,95651.00
2022-12-24T10:03:51.024Z,95647.00
2022-12-24T10:08:04.008Z,95643.00
2022-12-24T10:12:15.048Z,95635.00
2022-12-24T10:16:25.216Z,95644.00
2022-12-24T10:20:38.691Z,95630.00
2022-12-24T10:24:51.110Z,95638.00
2022-12-24T10:28:58.827Z,95649.00
2022-12-24T10:33:01.823Z,95639.00
2022-12-24T10:37:05.330Z,95640.00
2022-12-24T10:41:09.783Z,95634.00
2022-12-24T10:45:18.097Z,95624.00
2022-12-24T10:49:31.221Z,95625.00
2022-12-24T10:53:41.301Z,95633.00
2022-12-24T10:57:47.930Z,95639.00
2022-12-24T11:01:51.345Z,95641.00
2022-12-24T11:06:06.905Z,95640.00
2022-12-24T11:10:23.719Z,95648.00
2022-12-24T11:14:34.564Z,95657.00
2022-12-24T11:18:43.762Z,95662.00
2022-12-24T11:22:50.949Z,95664.00
2022-12-24T11:26:53.887Z,95658.00
2022-12-24T11:31:01.059Z,95646.00
2022-12-24T11:35:08.278Z,95639.00
2022-12-24T11:39:20.191Z,95647.00
2022-12-24T11:43:23.128Z,95645.00
2022-12-24T11:47:35.384Z,95642.00
2022-12-24T11:51:39.855Z,95660.00
2022-12-24T11:55:46.368Z,95666.00
2022-12-24T11:59:52.126Z,95647.00
2022-12-24T12:04:00.464Z,95646.00
2022-12-24T12:08:12.010Z,95651.00
2022-12-24T12:12:18.571Z,95644.00
2022-12-24T12:16:27.955Z,95649.00
2022-12-24T12:20:35.370Z,95636.00
2022-12-24T12:24:44.238Z,95633.00
2022-12-24T12:28:50.444Z,95635.00
2022-12-24T12:33:00.174Z,95639.00
2022-12-24T12:37:14.596Z,95640.00
2022-12-24T12:41:28.087Z,95656.00
2022-12-24T12:45:40.342Z,95665.00
2022-12-24T12:49:49.739Z,95667.00
2022-12-24T12:54:17.506Z,95676.00
2022-12-24T12:58:26.460Z,95681.00
2022-12-24T13:02:46.438Z,95678.00
2022-12-24T13:07:15.282Z,95681.00
2022-12-24T13:11:42.633Z,95683.00
2022-12-24T13:15:58.079Z,95688.00
2022-12-24T13:20:19.376Z,95686.00
2022-12-24T13:24:25.925Z,95696.00
2022-12-24T13:28:38.581Z,95700.00
2022-12-24T13:32:49.151Z,95698.00
2022-12-24T13:37:05.886Z,95700.00
2022-12-24T13:41:34.401Z,95695.00
2022-12-24T13:45:48.721Z,95701.00
2022-12-24T13:49:54.396Z,95702.00
2022-12-24T13:53:59.811Z,95714.00
2022-12-24T13:58:04.786Z,95709.00
2022-12-24T14:02:21.594Z,95705.00
2022-12-24T14:06:26.335Z,95707.00
2022-12-24T14:10:31.843Z,95711.00
2022-12-24T14:14:36.522Z,95711.00
2022-12-24T14:18:43.179Z,95711.00
2022-12-24T14:22:47.014Z,95710.00
2022-12-24T14:26:53.146Z,95721.00
2022-12-24T14:31:01.407Z,95719.00
2022-12-24T14:35:15.364Z,95714.00
2022-12-24T14:39:25.281Z,95714.00
2022-12-24T14:43:36.635Z,95728.00
2022-12-24T14:47:46.896Z,95723.00
2022-12-24T14:52:03.002Z,95738.00
2022-12-24T14:56:14.523Z,95737.00
2022-12-24T15:00:21.224Z,95740.00
2022-12-24T15:04:24.234Z,95748.00
2022-12-24T15:08:31.938Z,95746.00
2022-12-24T15:12:34.745Z,95732.00
2022-12-24T15:16:37.963Z,95739.00
2022-12-24T15:20:47.021Z,95720.00
2022-12-24T15:24:51.509Z,95730.00
2022-12-24T15:29:02.705Z,95729.00
2022-12-24T15:33:07.190Z,95717.00
2022-12-24T15:37:17.607Z,95720.00
2022-12-24T15:41:24.127Z,95727.00
2022-12-24T15:45:29.229Z,95734.00
2022-12-24T15:49:34.289Z,95742.00
2022-12-24T15:53:43.678Z,95734.00
2022-12-24T15:57:48.188Z,95737.00
2022-12-24T16:01:51.185Z,95734.00
2022-12-24T16:06:01.124Z,95735.00
2022-12-24T16:10:14.857Z,95731.00
2022-12-24T16:14:20.980Z,95736.00
2022-12-24T16:18:26.853Z,95734.00
2022-12-24T16:22:32.534Z,95739.00
2022-12-24T16:26:38.092Z,95759.00
2022-12-24T16:30:42.399Z,95761.00
2022-12-24T16:34:45.475Z,95751.00
2022-12-24T16:39:05.555Z,95743.00
2022-12-24T16:43:25.737Z,95751.00
2022-12-24T16:47:35.775Z,95749.00
2022-12-24T16:51:41.745Z,95757.00
2022-12-24T16:55:45.502Z,95757.00
2022-12-24T16:59:48.593Z,95769.00
2022-12-24T17:03:52.789Z,95766.00
2022-12-24T17:07:55.625Z,95764.00
2022-12-24T17:11:58.440Z,95758.00
2022-12-24T17:16:01.894Z,95750.00
2022-12-24T17:20:07.832Z,95759.00
2022-12-24T17:24:11.966Z,95755.00
2022-12-24T17:28:14.767Z,95763.00
2022-12-24T17:32:17.631Z,95752.00
2022-12-24T17:36:22.087Z,95762.00
2022-12-24T17:40:24.826Z,95763.00
2022-12-24T17:44:27.594Z,95769.00
2022-12-24T17:48:30.684Z,95764.00
2022-12-24T17:52:35.685Z,95767.00
2022-12-24T17:56:38.491Z,95760.00
2022-12-24T18:00:41.285Z,95768.00
2022-12-24T18:04:44.135Z,95759.00
2022-12-24T18:08:48.699Z,95764.00
2022-12-24T18:12:51.499Z,95774.00
2022-12-24T18:16:54.283Z,95772.00
2022-12-24T18:20:57.134Z,95770.00
2022-12-24T18:25:01.293Z,95783.00
2022-12-24T18:29:05.708Z,95785.00
2022-12-24T18:33:08.550Z,95787.00
2022-12-24T18:37:11.328Z,95784.00
2022-12-24T18:41:18.797Z,95775.00
2022-12-24T18:45:21.599Z,95775.00
2022-12-24T18:49:24.381Z,95779.00
2022-12-24T18:53:27.313Z,95772.00
2022-12-24T18:57:31.747Z,95775.00
2022-12-24T19:01:36.045Z,95773.00
2022-12-24T19:05:39.041Z,95789.00
2022-12-24T19:09:41.799Z,95795.00
2022-12-24T19:13:48.455Z,95811.00
2022-12-24T19:17:55.081Z,95809.00
2022-12-24T19:21:57.851Z,95805.00
2022-12-24T19:26:00.688Z,95812.00
2022-12-24T19:30:05.782Z,95806.00
2022-12-24T19:34:08.531Z,95807.00
2022-12-24T19:38:11.274Z,95824.00
2022-12-24T19:42:14.001Z,95815.00
2022-12-24T19:46:20.755Z,95811.00
2022-12-24T19:50:23.764Z,95813.00
2022-12-24T19:54:26.525Z,95802.00
2022-12-24T19:58:32.582Z,95790.00
2022-12-24T20:02:36.834Z,95796.00
2022-12-24T20:06:39.652Z,95805.00
2022-12-24T20:10:44.555Z,95794.00
2022-12-24T20:14:47.315Z,95790.00
2022-12-24T20:18:53.785Z,95794.00
2022-12-24T20:22:56.525Z,95787.00
2022-12-24T20:26:59.389Z,95807.00
2022-12-24T20:31:02.253Z,95823.00
2022-12-24T20:35:07.216Z,95816.00
2022-12-24T20:39:10.014Z,95814.00
2022-12-24T20:43:13.799Z,95808.00
2022-12-24T20:47:16.598Z,95808.00
2022-12-24T20:51:24.980Z,95813.00
2022-12-24T20:55:28.160Z,95809.00
2022-12-24T20:59:30.883Z,95809.00
2022-12-24T21:03:33.696Z,95816.00
2022-12-24T21:07:38.905Z,95811.00
2022-12-24T21:11:59.352Z,95821.00
2022-12-24T21:16:02.123Z,95819.00
2022-12-24T21:20:05.209Z,95821.00
2022-12-24T21:24:10.179Z,95818.00
2022-12-24T21:28:12.975Z,95826.00
2022-12-24T21:32:15.742Z,95825.00
2022-12-24T21:36:18.635Z,95826.00
2022-12-24T21:40:22.832Z,95828.00
2022-12-24T21:44:25.668Z,95828.00
2022-12-24T21:48:45.984Z,95836.00
2022-12-24T21:52:48.994Z,95839.00
2022-12-24T21:57:12.242Z,95852.00
2022-12-24T22:01:15.133Z,95848.00
2022-12-24T22:05:18.083Z,95853.00
2022-12-24T22:09:38.622Z,95849.00
2022-12-24T22:13:42.773Z,95849.00
2022-12-24T22:17:45.546Z,95856.00
2022-12-24T22:21:48.326Z,95853.00
2022-12-24T22:25:51.113Z,95851.00
2022-12-24T22:29:55.234Z,95847.00
2022-12-24T22:33:58.333Z,95845.00
2022-12-24T22:38:01.173Z,95848.00
2022-12-24T22:42:03.972Z,95851.00
2022-12-24T22:46:08.981Z,95850.00
2022-12-24T22:50:12.867Z,95861.00
2022-12-24T22:54:15.941Z,95862.00
2022-12-24T22:58:18.684Z,95859.00
2022-12-24T23:02:28.119Z,95869.00
2022-12-24T23:06:31.697Z,95860.00
2022-12-24T23:10:35.062Z,95865.00
2022-12-24T23:14:55.417Z,95865.00
2022-12-24T23:19:01.344Z,95862.00
2022-12-24T23:23:04.115Z,95864.00
2022-12-24T23:27:06.904Z,95866.00
2022-12-24T23:31:10.819Z,95859.00
2022-12-24T23:35:14.984Z,95853.00
2022-12-24T23:39:17.743Z,95857.00
2022-12-24T23:43:20.519Z,95865.00
2022-12-24T23:47:23.332Z,95859.00
2022-12-24T23:51:28.822Z,95863.00
2022-12-24T23:55:31.582Z,95857.00
2022-12-24T23:59:34.606Z,95852.00
